Time;durP1;ratioP1;P1;durP2;ratioP2;P2;SDS_P1;SDS_P2;PMS_P1;PMS_P2;Temp;Humidity;BMP_temperature;BMP_pressure;BME280_temperature;BME280_humidity;BME280_pressure;Samples;Min_cycle;Max_cycle;Signal;HPM_P1;HPM_P2
2022/09/23 00:00:59;;;;;;;4.27;3.07;;;;;;;3.72;100.00;101458.69;4998509;28;20693;-71
2022/09/23 00:03:27;;;;;;;4.40;3.37;;;;;;;3.60;100.00;101455.94;5005647;28;20243;-70
2022/09/23 00:05:58;;;;;;;4.47;3.40;;;;;;;3.61;100.00;101452.53;4999622;28;20197;-71
2022/09/23 00:08:26;;;;;;;5.20;3.80;;;;;;;3.76;100.00;101441.56;5008898;28;20641;-71
2022/09/23 00:10:53;;;;;;;7.63;5.07;;;;;;;3.79;100.00;101439.03;5000401;28;20205;-71
2022/09/23 00:13:19;;;;;;;6.13;4.57;;;;;;;3.83;100.00;101439.94;5005041;28;20314;-72
2022/09/23 00:15:46;;;;;;;6.53;4.03;;;;;;;3.57;100.00;101438.72;4997252;28;20641;-71
2022/09/23 00:18:12;;;;;;;5.60;3.70;;;;;;;3.72;100.00;101432.03;5005408;28;20233;-71
2022/09/23 00:20:39;;;;;;;7.60;3.53;;;;;;;3.58;100.00;101437.00;5002399;28;20205;-71
2022/09/23 00:23:06;;;;;;;5.07;3.27;;;;;;;3.66;100.00;101437.97;4986300;28;20224;-71
2022/09/23 00:25:33;;;;;;;5.53;3.90;;;;;;;3.58;100.00;101435.28;5002210;28;20195;-71
2022/09/23 00:28:00;;;;;;;5.83;4.17;;;;;;;3.58;100.00;101432.69;5002076;28;20197;-71
2022/09/23 00:30:27;;;;;;;5.23;3.70;;;;;;;3.51;100.00;101436.03;5002234;28;20197;-70
2022/09/23 00:32:55;;;;;;;6.33;3.67;;;;;;;3.57;100.00;101428.41;5005696;28;20575;-71
2022/09/23 00:35:23;;;;;;;7.80;4.17;;;;;;;3.53;100.00;101428.31;5001086;28;20197;-71
2022/09/23 00:37:49;;;;;;;6.37;4.20;;;;;;;3.47;100.00;101426.50;5000672;28;20278;-71
2022/09/23 00:40:16;;;;;;;8.33;4.83;;;;;;;3.42;100.00;101429.00;4997967;28;20596;-71
2022/09/23 00:42:47;;;;;;;7.63;4.33;;;;;;;3.45;100.00;101433.34;5001218;28;20697;-72
2022/09/23 00:45:14;;;;;;;4.33;3.43;;;;;;;3.53;100.00;101430.88;5001630;28;20201;-71
2022/09/23 00:47:46;;;;;;;7.90;4.20;;;;;;;3.44;100.00;101428.16;5000791;28;20204;-71
2022/09/23 00:50:21;;;;;;;4.77;3.40;;;;;;;3.42;100.00;101429.00;5006522;28;20259;-71
2022/09/23 00:52:50;;;;;;;6.27;4.37;;;;;;;3.38;100.00;101429.81;5000170;28;20418;-70
2022/09/23 00:55:20;;;;;;;5.47;3.80;;;;;;;3.46;100.00;101429.91;5003539;28;20685;-71
2022/09/23 00:57:48;;;;;;;6.73;4.67;;;;;;;3.52;100.00;101427.44;4999166;28;20200;-71
2022/09/23 01:00:15;;;;;;;5.73;4.60;;;;;;;3.38;100.00;101426.38;4999390;28;20193;-71
2022/09/23 01:02:41;;;;;;;7.47;5.63;;;;;;;3.43;100.00;101427.31;4996927;28;20221;-71
2022/09/23 01:05:09;;;;;;;8.50;5.20;;;;;;;3.46;100.00;101426.47;4988113;28;20212;-71
2022/09/23 01:07:35;;;;;;;8.90;5.10;;;;;;;3.37;100.00;101425.47;4983399;28;20685;-70
2022/09/23 01:10:02;;;;;;;8.87;5.43;;;;;;;3.40;100.00;101425.53;4998657;28;20204;-71
2022/09/23 01:12:52;;;;;;;8.63;5.23;;;;;;;3.38;100.00;101418.63;4999645;28;20232;-71
2022/09/23 01:15:24;;;;;;;8.73;5.87;;;;;;;3.24;100.00;101418.41;4998556;28;20683;-71
2022/09/23 01:18:00;;;;;;;7.33;5.33;;;;;;;3.33;100.00;101412.53;5000673;28;20201;-71
2022/09/23 01:21:11;;;;;;;6.87;4.67;;;;;;;3.33;100.00;101412.53;4977887;28;20201;-71
2022/09/23 01:24:07;;;;;;;5.87;4.93;;;;;;;3.17;100.00;101414.84;4979856;28;20225;-71
2022/09/23 01:26:52;;;;;;;7.57;5.40;;;;;;;3.12;100.00;101408.75;4994127;28;20223;-72
2022/09/23 01:29:49;;;;;;;7.93;4.90;;;;;;;3.25;100.00;101404.66;5000302;28;20204;-71
2022/09/23 01:32:26;;;;;;;5.57;3.87;;;;;;;3.27;100.00;101402.97;5002764;28;20589;-71
2022/09/23 01:35:02;;;;;;;5.77;4.10;;;;;;;3.21;100.00;101395.16;5002351;28;20193;-71
2022/09/23 01:37:35;;;;;;;6.50;4.23;;;;;;;3.21;100.00;101398.59;5005182;28;20204;-70
2022/09/23 01:40:07;;;;;;;5.80;3.97;;;;;;;3.19;100.00;101389.97;4980623;28;21133;-71
2022/09/23 01:42:38;;;;;;;5.47;3.83;;;;;;;3.07;100.00;101389.75;5000657;28;20212;-71
2022/09/23 01:45:09;;;;;;;6.47;4.47;;;;;;;3.05;100.00;101385.44;5000648;28;20250;-70
2022/09/23 01:47:41;;;;;;;5.80;3.50;;;;;;;3.05;100.00;101385.44;4981960;28;20212;-71
2022/09/23 01:53:01;;;;;;;7.07;4.23;;;;;;;3.07;100.00;101382.03;4996757;28;21039;-70
2022/09/23 01:55:32;;;;;;;4.40;3.67;;;;;;;3.14;100.00;101380.44;5003233;28;20204;-71
2022/09/23 01:58:04;;;;;;;5.77;4.47;;;;;;;2.91;100.00;101380.91;5002393;28;20216;-71
2022/09/23 02:00:36;;;;;;;6.90;3.77;;;;;;;3.11;100.00;101380.38;4985224;28;20240;-71
2022/09/23 02:03:11;;;;;;;5.63;4.17;;;;;;;3.12;100.00;101384.69;4999876;23;20239;-72
2022/09/23 02:05:41;;;;;;;4.40;3.63;;;;;;;3.10;100.00;101378.66;4996406;28;20625;-72
2022/09/23 02:08:13;;;;;;;5.97;4.37;;;;;;;2.97;100.00;101377.56;5000822;28;20216;-72
2022/09/23 02:10:44;;;;;;;6.10;4.17;;;;;;;2.82;100.00;101373.88;5000659;28;20216;-72
2022/09/23 02:13:17;;;;;;;5.10;3.70;;;;;;;2.92;100.00;101377.50;4998334;28;20589;-72
2022/09/23 02:15:49;;;;;;;4.37;3.37;;;;;;;3.14;100.00;101380.44;4979949;28;20211;-72
2022/09/23 02:18:21;;;;;;;4.77;3.80;;;;;;;3.22;100.00;101382.28;4985514;28;20197;-72
2022/09/23 02:20:52;;;;;;;3.87;3.27;;;;;;;3.08;100.00;101378.63;4992150;28;20208;-72
2022/09/23 02:23:22;;;;;;;4.63;3.63;;;;;;;3.14;100.00;101370.13;4985122;28;20221;-71
2022/09/23 02:25:57;;;;;;;5.80;4.07;;;;;;;3.10;100.00;101374.38;4989805;28;20201;-71
2022/09/23 02:28:27;;;;;;;4.97;3.77;;;;;;;3.16;100.00;101368.44;4987212;28;20193;-71
2022/09/23 02:31:11;;;;;;;4.97;3.87;;;;;;;3.12;100.00;101366.66;4991704;28;20209;-72
2022/09/23 02:33:48;;;;;;;6.27;4.33;;;;;;;3.03;100.00;101363.09;4985531;28;20213;-71
2022/09/23 02:36:22;;;;;;;5.87;4.07;;;;;;;2.89;100.00;101355.97;4983498;28;20228;-71
2022/09/23 02:38:53;;;;;;;5.77;4.00;;;;;;;2.98;100.00;101350.97;4986800;28;20208;-71
2022/09/23 02:41:26;;;;;;;5.70;3.87;;;;;;;3.13;100.00;101355.50;4988377;28;20219;-70
2022/09/23 02:43:58;;;;;;;6.20;4.13;;;;;;;2.89;100.00;101350.81;4969656;28;20217;-71
2022/09/23 02:46:26;;;;;;;7.20;4.47;;;;;;;2.80;100.00;101352.41;4985423;28;20835;-71
2022/09/23 02:49:00;;;;;;;5.00;3.77;;;;;;;2.95;100.00;101354.34;4983637;28;20280;-72
2022/09/23 02:51:27;;;;;;;6.67;4.23;;;;;;;2.84;100.00;101348.16;4992749;28;20287;-72
2022/09/23 02:53:55;;;;;;;5.03;3.70;;;;;;;2.94;100.00;101342.31;4991532;28;20581;-71
2022/09/23 02:56:21;;;;;;;4.03;3.00;;;;;;;2.80;100.00;101342.09;4993426;28;20279;-71
2022/09/23 02:58:49;;;;;;;6.70;4.10;;;;;;;2.74;100.00;101338.53;4993313;28;20200;-70
2022/09/23 03:01:31;;;;;;;4.30;3.47;;;;;;;2.79;100.00;101337.75;4989520;28;20561;-70
2022/09/23 03:04:08;;;;;;;4.90;3.63;;;;;;;2.62;100.00;101329.78;5000145;28;20282;-71
2022/09/23 03:06:56;;;;;;;4.13;3.10;;;;;;;2.69;100.00;101335.91;4992343;28;20213;-70
2022/09/23 03:09:27;;;;;;;4.87;3.43;;;;;;;2.58;100.00;101340.81;4990970;28;20192;-71
2022/09/23 03:12:05;;;;;;;5.07;3.60;;;;;;;2.66;100.00;101335.84;4994150;28;20212;-71
2022/09/23 03:14:40;;;;;;;3.17;2.83;;;;;;;2.74;100.00;101334.25;4986054;28;20589;-72
2022/09/23 03:17:14;;;;;;;4.00;2.67;;;;;;;2.74;100.00;101329.09;4987172;28;20204;-70
2022/09/23 03:19:48;;;;;;;3.13;2.57;;;;;;;2.71;100.00;101328.16;4986524;28;20666;-71
2022/09/23 03:22:18;;;;;;;2.93;2.50;;;;;;;2.69;100.00;101319.56;4986675;28;20218;-71
2022/09/23 03:24:47;;;;;;;2.67;2.30;;;;;;;2.63;100.00;101325.47;4984973;28;20635;-70
2022/09/23 03:27:16;;;;;;;4.93;3.00;;;;;;;2.56;100.00;101323.63;4987173;28;20582;-72
2022/09/23 03:29:46;;;;;;;2.47;2.27;;;;;;;2.58;100.00;101317.66;4982268;28;20343;-71
2022/09/23 03:32:14;;;;;;;3.00;2.50;;;;;;;2.63;100.00;101321.19;4988882;28;20236;-71
2022/09/23 03:34:44;;;;;;;3.03;2.47;;;;;;;2.47;100.00;101314.03;4992320;28;20229;-71
2022/09/23 03:37:16;;;;;;;4.47;2.47;;;;;;;2.47;100.00;101314.03;4985734;28;20204;-71
2022/09/23 03:39:48;;;;;;;3.30;2.60;;;;;;;2.69;100.00;101312.72;4995586;28;20219;-71
2022/09/23 03:42:19;;;;;;;2.97;2.20;;;;;;;2.68;100.00;101312.69;4993814;28;20215;-71
2022/09/23 03:44:47;;;;;;;3.90;2.43;;;;;;;2.73;100.00;101306.78;4992421;28;20217;-72
2022/09/23 03:47:15;;;;;;;3.57;2.47;;;;;;;2.61;100.00;101309.13;4986097;28;20565;-70
2022/09/23 03:49:47;;;;;;;3.23;2.37;;;;;;;2.65;100.00;101306.63;4997213;28;20224;-72
2022/09/23 03:52:13;;;;;;;3.43;2.03;;;;;;;2.80;100.00;101305.19;4988154;28;20673;-71
2022/09/23 03:54:40;;;;;;;4.27;2.73;;;;;;;2.62;100.00;101303.13;4991588;28;20224;-71
2022/09/23 03:57:06;;;;;;;2.80;2.20;;;;;;;2.47;100.00;101304.59;4979593;28;20228;-70
2022/09/23 03:59:33;;;;;;;3.70;3.00;;;;;;;2.41;100.00;101298.47;4984493;28;20208;-71
2022/09/23 04:02:00;;;;;;;4.73;3.13;;;;;;;2.46;100.00;101295.16;4984415;28;20205;-71
2022/09/23 04:04:29;;;;;;;4.90;3.50;;;;;;;2.62;100.00;101298.88;4979442;28;20229;-72
2022/09/23 04:06:56;;;;;;;5.70;3.40;;;;;;;2.67;100.00;101300.66;4988929;28;20208;-71
2022/09/23 04:09:25;;;;;;;9.63;5.23;;;;;;;2.71;100.00;101297.28;4988035;28;20743;-70
2022/09/23 04:11:52;;;;;;;33.57;16.93;;;;;;;2.52;100.00;101298.69;4988066;28;20216;-71
2022/09/23 04:14:20;;;;;;;38.27;17.03;;;;;;;2.53;100.00;101297.81;4980857;28;20589;-71
2022/09/23 04:16:47;;;;;;;26.40;12.23;;;;;;;2.68;100.00;101298.09;4977244;28;20220;-71
2022/09/23 04:19:14;;;;;;;28.47;15.23;;;;;;;2.32;100.00;101300.88;4985664;28;20719;-70
2022/09/23 04:21:42;;;;;;;33.27;16.87;;;;;;;2.27;100.00;101300.81;4978680;28;20213;-71
2022/09/23 04:24:11;;;;;;;39.27;19.60;;;;;;;2.61;100.00;101291.13;4984816;28;20209;-72
2022/09/23 04:26:38;;;;;;;38.13;19.73;;;;;;;2.22;100.00;101292.13;4989635;28;20677;-71
2022/09/23 04:29:05;;;;;;;32.10;16.37;;;;;;;2.48;100.00;101284.91;4984611;28;20700;-70
2022/09/23 04:31:32;;;;;;;27.97;15.63;;;;;;;2.45;100.00;101289.97;4985634;28;20523;-71
2022/09/23 04:33:59;;;;;;;18.27;11.53;;;;;;;2.39;100.00;101288.16;4979343;28;20228;-71
2022/09/23 04:36:26;;;;;;;25.13;12.17;;;;;;;2.48;100.00;101279.75;4979522;28;20212;-70
2022/09/23 04:38:53;;;;;;;19.00;10.80;;;;;;;2.46;100.00;101287.44;4980945;28;20194;-70
2022/09/23 04:41:20;;;;;;;20.67;11.17;;;;;;;2.50;100.00;101284.91;4979592;28;20479;-71
2022/09/23 04:43:47;;;;;;;18.97;11.30;;;;;;;2.41;100.00;101286.47;4975710;28;20209;-71
2022/09/23 04:46:15;;;;;;;21.50;11.40;;;;;;;2.45;100.00;101283.13;4975843;28;20210;-71
2022/09/23 04:48:42;;;;;;;15.93;9.40;;;;;;;2.40;100.00;101282.16;4982901;28;20201;-71
2022/09/23 04:51:10;;;;;;;19.70;10.33;;;;;;;2.51;100.00;101278.91;4970672;28;20205;-71
2022/09/23 04:53:38;;;;;;;13.17;7.97;;;;;;;2.45;100.00;101274.53;4974811;28;20225;-71
2022/09/23 04:56:08;;;;;;;10.10;6.53;;;;;;;1.88;100.00;101276.03;4980668;28;20213;-71
2022/09/23 04:58:36;;;;;;;9.17;5.87;;;;;;;1.80;100.00;101272.47;4983238;28;20292;-71
2022/09/23 05:01:09;;;;;;;10.70;6.77;;;;;;;2.09;100.00;101273.00;4976525;28;20247;-71
2022/09/23 05:03:35;;;;;;;10.83;7.27;;;;;;;2.07;100.00;101272.13;4981366;28;20236;-71
2022/09/23 05:06:02;;;;;;;12.80;7.77;;;;;;;2.07;100.00;101279.84;4982977;28;20712;-70
2022/09/23 05:08:28;;;;;;;16.80;8.40;;;;;;;2.31;100.00;101278.56;4983830;28;20563;-71
2022/09/23 05:10:56;;;;;;;12.40;7.57;;;;;;;2.39;100.00;101285.59;4971648;28;20213;-71
2022/09/23 05:13:23;;;;;;;13.10;8.03;;;;;;;2.38;100.00;101288.13;4983908;28;20602;-71
2022/09/23 05:15:57;;;;;;;16.10;7.87;;;;;;;2.46;100.00;101276.25;4979488;28;20658;-71
2022/09/23 05:18:23;;;;;;;13.33;7.63;;;;;;;2.41;100.00;101283.91;4975636;28;20570;-71
2022/09/23 05:20:53;;;;;;;12.60;6.23;;;;;;;2.42;100.00;101284.78;4979622;28;20667;-71
2022/09/23 05:23:19;;;;;;;12.53;6.83;;;;;;;2.55;100.00;101283.28;4972080;28;20287;-71
2022/09/23 05:25:47;;;;;;;13.00;5.97;;;;;;;2.58;100.00;101289.34;4973973;28;20667;-70
2022/09/23 05:28:13;;;;;;;8.43;5.27;;;;;;;2.59;100.00;101288.50;4973881;28;20237;-71
2022/09/23 05:30:40;;;;;;;9.70;5.40;;;;;;;2.52;100.00;101290.97;4973087;28;20595;-70
2022/09/23 05:33:07;;;;;;;10.03;4.93;;;;;;;2.63;100.00;101292.84;4976007;28;20721;-70
2022/09/23 05:35:34;;;;;;;10.17;5.70;;;;;;;2.70;100.00;101287.81;4984290;28;20222;-71
2022/09/23 05:38:00;;;;;;;9.03;6.27;;;;;;;2.70;100.00;101291.25;4977933;28;20208;-71
2022/09/23 05:40:27;;;;;;;9.27;5.93;;;;;;;2.76;100.00;101287.91;4978596;28;20312;-70
2022/09/23 05:42:55;;;;;;;10.00;6.07;;;;;;;2.81;100.00;101281.13;4983061;28;20563;-71
2022/09/23 05:45:23;;;;;;;12.17;7.00;;;;;;;3.05;100.00;101280.66;4981524;28;20194;-70
2022/09/23 05:47:49;;;;;;;9.83;5.93;;;;;;;3.03;100.00;101280.63;4985952;28;20234;-71
2022/09/23 05:50:17;;;;;;;11.93;6.80;;;;;;;3.08;100.00;101280.72;4979193;28;20217;-72
2022/09/23 05:52:43;;;;;;;10.07;6.43;;;;;;;3.20;100.00;101274.84;4984356;28;20571;-71
2022/09/23 05:55:10;;;;;;;10.03;6.00;;;;;;;3.32;100.00;101275.03;4978592;28;20906;-71
2022/09/23 05:57:37;;;;;;;8.80;6.30;;;;;;;3.36;100.00;101274.25;4983780;28;20216;-71
2022/09/23 06:00:04;;;;;;;9.57;6.30;;;;;;;3.36;100.00;101273.34;4980981;28;20223;-72
2022/09/23 06:02:38;;;;;;;12.23;5.43;;;;;;;3.57;100.00;101283.97;4985899;28;20192;-71
2022/09/23 06:05:05;;;;;;;6.73;5.17;;;;;;;3.60;100.00;101278.84;4979761;28;20193;-70
2022/09/23 06:07:33;;;;;;;9.10;5.47;;;;;;;3.68;100.00;101275.53;4984551;28;20217;-72
2022/09/23 06:09:59;;;;;;;7.33;5.03;;;;;;;3.73;100.00;101279.88;4987533;28;20227;-70
2022/09/23 06:12:25;;;;;;;6.57;4.93;;;;;;;3.95;100.00;101281.00;4984178;28;20773;-71
2022/09/23 06:14:52;;;;;;;6.73;5.27;;;;;;;4.03;100.00;101280.22;4977412;28;20623;-71
2022/09/23 06:17:18;;;;;;;14.53;6.00;;;;;;;3.99;100.00;101281.91;4978112;28;20658;-71
2022/09/23 06:19:45;;;;;;;7.53;6.17;;;;;;;4.06;100.00;101278.53;4980134;28;20205;-72
2022/09/23 06:22:15;;;;;;;8.10;5.70;;;;;;;4.13;100.00;101282.94;4981290;28;20202;-71
2022/09/23 06:24:43;;;;;;;7.97;5.27;;;;;;;4.24;100.00;101287.31;4977875;28;20299;-71
2022/09/23 06:27:09;;;;;;;7.87;5.60;;;;;;;4.38;100.00;101285.78;4986686;28;20206;-71
2022/09/23 06:29:36;;;;;;;7.03;5.20;;;;;;;4.45;100.00;101281.50;4983063;28;20418;-72
2022/09/23 06:32:02;;;;;;;9.50;5.23;;;;;;;4.46;100.00;101285.84;4985980;28;20300;-71
2022/09/23 06:34:29;;;;;;;5.63;4.93;;;;;;;4.47;100.00;101285.00;4977101;28;20220;-71
2022/09/23 06:36:56;;;;;;;7.00;5.60;;;;;;;4.52;100.00;101281.59;4992831;28;20217;-72
2022/09/23 06:39:23;;;;;;;6.77;5.27;;;;;;;4.73;100.00;101292.94;4980606;28;20223;-72
2022/09/23 06:41:50;;;;;;;7.67;5.27;;;;;;;4.87;100.00;101286.22;4978209;28;20197;-71
2022/09/23 06:44:17;;;;;;;7.47;5.90;;;;;;;5.01;100.00;101285.44;4980894;28;20234;-72
2022/09/23 06:46:43;;;;;;;8.13;6.53;;;;;;;5.03;100.00;101286.31;4980725;28;20530;-71
2022/09/23 06:49:12;;;;;;;8.20;5.97;;;;;;;5.01;100.00;101294.03;4985607;28;20792;-71
2022/09/23 06:51:39;;;;;;;7.73;6.40;;;;;;;5.09;100.00;101279.47;4987307;28;20200;-72
2022/09/23 06:54:05;;;;;;;9.83;6.80;;;;;;;5.20;100.00;101284.69;4987967;28;20231;-71
2022/09/23 06:56:32;;;;;;;7.13;5.77;;;;;;;5.32;100.00;101282.19;4979412;28;20292;-71
2022/09/23 06:58:59;;;;;;;9.03;6.07;;;;;;;5.39;100.00;101280.50;4989726;28;20709;-71
2022/09/23 07:01:26;;;;;;;9.73;7.10;;;;;;;5.47;100.00;101275.38;4981914;28;20209;-72
2022/09/23 07:03:53;;;;;;;8.27;6.40;;;;;;;5.57;100.00;101273.72;4985302;28;20275;-72
2022/09/23 07:06:19;;;;;;;8.33;6.47;;;;;;;5.67;100.00;101268.56;4986552;28;20197;-72
2022/09/23 07:08:47;;;;;;;10.23;6.57;;;;;;;5.76;100.00;101275.50;4988721;28;20212;-72
2022/09/23 07:11:14;;;;;;;10.37;7.83;;;;;;;5.84;100.00;101276.41;4987151;28;20193;-71
2022/09/23 07:13:41;;;;;;;13.70;10.77;;;;;;;5.97;100.00;101272.19;4986424;28;20225;-71
2022/09/23 07:16:10;;;;;;;9.37;7.30;;;;;;;6.03;100.00;101282.56;4978762;28;20701;-71
2022/09/23 07:18:38;;;;;;;10.87;7.70;;;;;;;6.16;100.00;101280.00;4980873;28;20677;-71
2022/09/23 07:21:06;;;;;;;9.57;7.23;;;;;;;6.24;100.00;101288.63;4994078;28;20198;-72
2022/09/23 07:23:33;;;;;;;17.50;12.50;;;;;;;6.33;100.00;101283.50;4978170;28;20224;-72
2022/09/23 07:26:00;;;;;;;16.60;10.97;;;;;;;6.47;100.00;101287.81;4981448;28;20205;-71
2022/09/23 07:28:27;;;;;;;27.13;18.10;;;;;;;6.58;100.00;101280.94;4979756;28;20202;-72
2022/09/23 07:30:54;;;;;;;10.73;7.50;;;;;;;6.64;100.00;101286.13;4982323;28;20215;-71
2022/09/23 07:33:22;;;;;;;11.80;9.60;;;;;;;6.76;100.00;101285.28;4982462;28;20243;-71
2022/09/23 07:35:48;;;;;;;11.43;8.53;;;;;;;6.86;100.00;101278.34;4982928;28;20208;-71
2022/09/23 07:38:15;;;;;;;12.17;7.73;;;;;;;6.97;100.00;101276.63;4985708;28;20602;-72
2022/09/23 07:40:41;;;;;;;11.17;8.00;;;;;;;7.16;100.00;101277.47;4989490;28;20214;-72
2022/09/23 07:43:08;;;;;;;10.63;7.53;;;;;;;7.29;100.00;101275.72;4989364;28;20659;-72
2022/09/23 07:45:37;;;;;;;9.50;7.13;;;;;;;7.39;100.00;101275.69;4996541;28;20203;-71
2022/09/23 07:48:04;;;;;;;11.37;8.07;;;;;;;7.51;100.00;101276.50;4990919;28;20292;-72
2022/09/23 07:50:32;;;;;;;10.00;7.73;;;;;;;7.60;100.00;101276.50;4996337;28;20679;-71
2022/09/23 07:53:01;;;;;;;9.97;6.77;;;;;;;7.69;100.00;101279.03;4984271;28;20616;-72
2022/09/23 07:55:28;;;;;;;9.90;7.07;;;;;;;7.81;100.00;101275.53;4986094;28;20230;-72
2022/09/23 07:57:54;;;;;;;9.87;7.30;;;;;;;7.86;100.00;101268.59;4990279;28;20198;-72
2022/09/23 08:00:20;;;;;;;9.13;7.43;;;;;;;7.93;100.00;101266.81;4992834;28;20211;-72
2022/09/23 08:02:47;;;;;;;14.40;8.13;;;;;;;8.05;100.00;101268.50;4992470;28;20226;-72
2022/09/23 08:05:13;;;;;;;11.17;7.03;;;;;;;8.15;100.00;101267.56;5038123;23;20233;-72
2022/09/23 08:07:41;;;;;;;10.43;8.07;;;;;;;8.28;100.00;101265.75;5034357;28;20198;-72
2022/09/23 08:10:08;;;;;;;10.53;7.33;;;;;;;8.39;100.00;101263.97;5036286;28;20208;-71
2022/09/23 08:12:35;;;;;;;10.70;8.00;;;;;;;8.52;100.00;101269.97;5040078;28;20665;-72
2022/09/23 08:15:01;;;;;;;13.37;8.90;;;;;;;8.63;100.00;101260.34;5036714;28;21332;-73
2022/09/23 08:17:28;;;;;;;15.00;10.43;;;;;;;8.77;100.00;101261.97;5034240;28;20199;-71
2022/09/23 08:19:54;;;;;;;14.17;8.53;;;;;;;8.78;100.00;101258.50;5034610;28;20203;-72
2022/09/23 08:22:20;;;;;;;10.50;7.90;;;;;;;8.90;100.00;101254.06;5041944;28;20206;-72
2022/09/23 08:24:48;;;;;;;13.50;8.97;;;;;;;9.01;100.00;101245.28;5036713;28;20233;-72
2022/09/23 08:27:15;;;;;;;12.37;8.10;;;;;;;9.16;100.00;101246.84;5036614;28;20492;-72
2022/09/23 08:29:41;;;;;;;15.30;9.10;;;;;;;9.25;100.00;101251.97;5043715;28;20580;-71
2022/09/23 08:32:07;;;;;;;17.87;9.37;;;;;;;9.33;100.00;101244.94;5039698;28;20262;-72
2022/09/23 08:34:34;;;;;;;13.50;9.00;;;;;;;9.45;100.00;101244.81;5043509;28;20294;-71
2022/09/23 08:37:00;;;;;;;17.43;9.60;;;;;;;9.54;100.00;101246.44;5041071;28;20302;-72
2022/09/23 08:39:27;;;;;;;17.30;10.20;;;;;;;9.62;100.00;101244.63;5042280;28;20234;-72
2022/09/23 08:42:07;;;;;;;17.00;10.43;;;;;;;9.78;100.00;101245.28;5043699;28;20203;-71
2022/09/23 08:44:45;;;;;;;14.27;9.00;;;;;;;9.86;100.00;101238.19;5038049;28;20224;-72
2022/09/23 08:47:18;;;;;;;14.30;9.27;;;;;;;10.05;100.00;101241.44;5035888;28;20282;-72
2022/09/23 08:49:53;;;;;;;14.30;9.43;;;;;;;10.15;100.00;101239.56;5033851;28;20204;-72
2022/09/23 08:52:27;;;;;;;14.80;10.23;;;;;;;10.16;100.00;101238.66;5037170;28;20211;-72
2022/09/23 08:54:54;;;;;;;19.93;11.03;;;;;;;10.24;100.00;101235.97;5034387;28;20742;-72
2022/09/23 08:57:34;;;;;;;21.93;11.23;;;;;;;10.38;100.00;101230.56;5035863;28;20211;-71
2022/09/23 09:00:01;;;;;;;26.87;12.57;;;;;;;10.45;100.00;101219.16;5031256;28;20205;-71
2022/09/23 09:02:29;;;;;;;17.57;10.77;;;;;;;10.50;100.00;101219.06;5035996;28;20695;-72
2022/09/23 09:05:02;;;;;;;17.77;10.63;;;;;;;10.58;100.00;101228.47;5038112;28;20237;-71
2022/09/23 09:07:33;;;;;;;22.23;11.70;;;;;;;10.72;100.00;101233.47;5037855;28;20196;-72
2022/09/23 09:10:05;;;;;;;17.33;11.37;;;;;;;10.80;100.00;101225.53;5035367;28;20639;-72
2022/09/23 09:12:41;;;;;;;16.07;10.37;;;;;;;10.89;100.00;101229.72;5038642;28;20206;-72
2022/09/23 09:15:12;;;;;;;14.23;8.90;;;;;;;11.02;100.00;101223.38;5039834;28;20307;-73
2022/09/23 09:17:47;;;;;;;12.77;8.60;;;;;;;11.16;100.00;101225.75;5040488;28;20206;-72
2022/09/23 09:20:22;;;;;;;12.00;8.53;;;;;;;11.27;100.00;101233.34;5038527;28;20227;-72
2022/09/23 09:22:54;;;;;;;8.20;7.10;;;;;;;11.34;100.00;101225.41;5042062;28;20200;-72
2022/09/23 09:25:38;;;;;;;7.33;6.17;;;;;;;11.38;100.00;101228.81;5036827;28;20240;-72
2022/09/23 09:28:14;;;;;;;9.33;5.60;;;;;;;11.56;100.00;101219.72;5043663;28;20202;-73
2022/09/23 09:30:41;;;;;;;7.10;5.27;;;;;;;11.61;100.00;101223.13;5035769;28;20214;-73
2022/09/23 09:33:14;;;;;;;7.90;5.07;;;;;;;11.70;100.00;101220.28;5035165;28;20198;-72
2022/09/23 09:35:52;;;;;;;7.43;4.30;;;;;;;11.82;100.00;101226.13;5033775;28;20241;-73
2022/09/23 09:38:20;;;;;;;7.07;4.43;;;;;;;11.87;100.00;101219.94;5018124;28;20206;-73
2022/09/23 09:40:48;;;;;;;8.17;4.00;;;;;;;12.01;100.00;101214.41;5033483;28;20271;-72
2022/09/23 09:43:21;;;;;;;5.47;3.00;;;;;;;12.25;100.00;101222.59;5038325;28;20207;-72
2022/09/23 09:46:00;;;;;;;3.63;2.53;;;;;;;12.32;100.00;101217.19;5032358;28;20203;-72
2022/09/23 09:48:36;;;;;;;5.73;3.13;;;;;;;12.29;100.00;101219.00;5043692;28;20206;-72
2022/09/23 09:51:18;;;;;;;2.80;2.40;;;;;;;12.36;100.00;101211.88;5032807;28;20609;-72
2022/09/23 09:53:44;;;;;;;3.90;2.90;;;;;;;12.52;100.00;101212.38;5019446;28;20318;-72
2022/09/23 09:56:14;;;;;;;3.87;2.60;;;;;;;12.67;100.00;101215.44;5033067;28;20641;-73
2022/09/23 09:58:46;;;;;;;3.57;3.00;;;;;;;12.72;100.00;101214.47;5037323;28;20195;-72
2022/09/23 10:01:23;;;;;;;3.43;2.33;;;;;;;12.79;100.00;101208.22;5034378;28;20218;-72
2022/09/23 10:03:51;;;;;;;3.30;2.67;;;;;;;12.86;100.00;101207.13;5038486;28;20313;-72
2022/09/23 10:06:21;;;;;;;2.93;2.63;;;;;;;12.95;100.00;101200.81;5035632;28;20206;-72
2022/09/23 10:09:07;;;;;;;3.90;2.23;;;;;;;13.08;100.00;101199.56;5017871;28;21004;-72
2022/09/23 10:11:33;;;;;;;2.33;1.97;;;;;;;13.07;100.00;101203.94;5020494;28;20311;-71
2022/09/23 10:14:05;;;;;;;1.93;1.73;;;;;;;13.22;100.00;101193.94;5035458;28;20700;-72
2022/09/23 10:16:34;;;;;;;2.20;2.00;;;;;;;13.42;100.00;101193.41;5036924;28;20208;-71
2022/09/23 10:19:02;;;;;;;4.17;2.00;;;;;;;13.46;100.00;101204.66;5039846;28;20204;-72
2022/09/23 10:21:34;;;;;;;2.57;1.70;;;;;;;13.57;100.00;101192.94;5033836;28;20200;-72
2022/09/23 10:24:03;;;;;;;2.73;1.70;;;;;;;13.73;100.00;101198.59;5022183;28;20583;-72
2022/09/23 10:26:32;;;;;;;2.10;1.40;;;;;;;13.78;100.00;101203.72;5030486;28;20677;-72
2022/09/23 10:29:01;;;;;;;2.47;1.80;;;;;;;13.72;100.00;101203.88;5038513;28;20207;-72
2022/09/23 10:31:30;;;;;;;1.67;1.57;;;;;;;13.79;100.00;101197.53;5032694;28;20212;-72
2022/09/23 10:33:59;;;;;;;1.60;1.30;;;;;;;13.83;100.00;101188.69;5039214;28;20223;-72
2022/09/23 10:36:27;;;;;;;4.13;3.20;;;;;;;13.98;100.00;101205.69;5037679;28;20269;-71
2022/09/23 10:46:36;;;;;;;2.40;1.63;;;;;;;14.05;100.00;101209.84;5039950;28;20203;-72
2022/09/23 10:47:48;;;;;;;1.57;1.10;;;;;;;14.07;100.00;101191.44;5039576;28;20566;-72
2022/09/23 10:50:24;;;;;;;1.70;1.30;;;;;;;14.01;100.00;101185.50;5020700;28;20198;-72
2022/09/23 10:53:03;;;;;;;1.13;1.00;;;;;;;14.08;100.00;101183.53;5037115;28;20202;-72
2022/09/23 10:55:52;;;;;;;1.93;1.10;;;;;;;14.23;89.87;101186.56;5031639;28;20321;-73
2022/09/23 10:58:54;;;;;;;1.70;1.40;;;;;;;14.38;97.47;101180.84;5034649;28;20203;-73
2022/09/23 11:01:34;;;;;;;2.90;1.30;;;;;;;14.52;87.94;101181.22;5032983;28;20195;-72
2022/09/23 11:04:18;;;;;;;1.90;1.30;;;;;;;14.63;93.67;101167.75;5034135;28;20234;-71
2022/09/23 11:07:06;;;;;;;1.73;1.47;;;;;;;14.73;89.32;101169.16;5035425;28;20249;-72
2022/09/23 11:09:41;;;;;;;1.10;1.00;;;;;;;14.74;80.02;101170.03;5033616;28;20265;-72
2022/09/23 11:12:20;;;;;;;1.20;1.10;;;;;;;14.89;86.06;101171.25;5039184;28;20205;-72
2022/09/23 11:14:59;;;;;;;1.23;1.03;;;;;;;15.06;83.85;101165.41;5036617;28;20739;-72
2022/09/23 11:17:44;;;;;;;1.20;1.10;;;;;;;15.13;88.84;101159.03;5023267;28;20264;-72
2022/09/23 11:20:31;;;;;;;1.30;1.20;;;;;;;15.13;89.98;101153.78;5035586;28;20762;-72
2022/09/23 11:23:28;;;;;;;1.27;1.13;;;;;;;14.90;87.38;101151.97;5045863;28;20198;-71
2022/09/23 11:26:05;;;;;;;1.67;1.23;;;;;;;14.69;93.41;101153.59;5037834;28;20207;-72
2022/09/23 11:29:09;;;;;;;1.23;1.00;;;;;;;14.56;88.65;101146.13;5022192;28;20269;-72
2022/09/23 11:31:44;;;;;;;2.03;1.50;;;;;;;14.64;81.18;101147.66;4979921;28;20299;-72
2022/09/23 11:34:42;;;;;;;1.03;0.93;;;;;;;14.78;73.28;101153.28;5022897;28;20226;-72
2022/09/23 11:37:14;;;;;;;0.90;0.90;;;;;;;14.91;70.64;101158.94;5038226;28;20222;-72
2022/09/23 11:39:47;;;;;;;0.93;0.90;;;;;;;15.07;74.61;101143.47;5037064;28;20190;-71
2022/09/23 11:42:19;;;;;;;1.20;1.10;;;;;;;15.27;78.02;101135.72;5018604;28;20344;-73
2022/09/23 11:44:49;;;;;;;1.63;0.70;;;;;;;15.37;70.95;101141.47;5036850;28;20711;-72